createdAt,value
2022-12-31T00:02:04.644Z,8.76
2022-12-31T00:07:07.359Z,6.97
2022-12-31T00:12:10.125Z,5.96
2022-12-31T00:17:12.912Z,7.28
2022-12-31T00:22:15.599Z,10.86
2022-12-31T00:27:18.388Z,9.15
2022-12-31T00:32:21.113Z,7.17
2022-12-31T00:37:23.859Z,8.85
2022-12-31T00:42:26.617Z,10.64
2022-12-31T00:47:29.336Z,8.30
2022-12-31T00:52:32.045Z,7.97
2022-12-31T00:57:34.733Z,11.12
2022-12-31T01:02:37.609Z,10.07
2022-12-31T01:07:40.589Z,7.77
2022-12-31T01:12:43.283Z,8.50
2022-12-31T01:17:46.107Z,10.85
2022-12-31T01:22:48.797Z,8.52
2022-12-31T01:27:51.495Z,6.96
2022-12-31T01:32:54.266Z,7.89
2022-12-31T01:37:56.991Z,11.03
2022-12-31T01:42:59.756Z,9.11
2022-12-31T01:48:02.592Z,7.37
2022-12-31T01:53:07.399Z,6.91
2022-12-31T01:58:20.954Z,10.55
2022-12-31T02:03:25.542Z,10.61
2022-12-31T02:08:28.561Z,8.28
2022-12-31T02:13:31.425Z,7.07
2022-12-31T02:18:56.292Z,9.54
2022-12-31T02:24:18.043Z,10.82
2022-12-31T02:29:53.690Z,8.39
2022-12-31T02:35:03.232Z,7.02
2022-12-31T02:40:11.680Z,8.51
2022-12-31T02:45:20.320Z,11.38
2022-12-31T02:50:55.558Z,9.25
2022-12-31T02:56:09.479Z,7.49
2022-12-31T03:01:37.123Z,8.79
2022-12-31T03:06:41.716Z,11.29
2022-12-31T03:12:03.212Z,9.17
2022-12-31T03:17:06.025Z,11.09
2022-12-31T03:22:28.066Z,10.22
2022-12-31T03:27:30.828Z,10.10
2022-12-31T03:32:33.541Z,11.56
2022-12-31T03:37:36.306Z,9.47
2022-12-31T03:42:39.075Z,10.20
2022-12-31T03:47:42.246Z,11.81
2022-12-31T03:52:45.577Z,9.80
2022-12-31T03:57:48.211Z,11.53
2022-12-31T04:02:51.524Z,10.92
2022-12-31T04:07:55.873Z,10.87
2022-12-31T04:13:00.344Z,11.89
2022-12-31T04:18:03.189Z,10.20
2022-12-31T04:23:05.904Z,12.43
2022-12-31T04:28:08.607Z,10.71
2022-12-31T04:33:11.363Z,11.50
2022-12-31T04:38:14.146Z,11.04
2022-12-31T04:43:16.823Z,10.79
2022-12-31T04:48:20.045Z,11.44
2022-12-31T04:53:24.596Z,10.65
2022-12-31T04:58:27.681Z,12.30
2022-12-31T05:03:31.014Z,10.33
2022-12-31T05:08:34.121Z,11.81
2022-12-31T05:13:36.882Z,10.86
2022-12-31T05:18:39.677Z,11.42
2022-12-31T05:23:42.346Z,12.21
2022-12-31T05:28:45.070Z,10.65
2022-12-31T05:33:47.895Z,12.23
2022-12-31T05:38:50.572Z,10.72
2022-12-31T05:43:53.298Z,12.55
2022-12-31T05:48:56.000Z,11.25
2022-12-31T05:53:58.760Z,11.63
2022-12-31T05:59:01.493Z,12.79
2022-12-31T06:04:04.411Z,10.71
2022-12-31T06:09:07.173Z,12.69
2022-12-31T06:14:10.281Z,12.83
2022-12-31T06:19:12.971Z,11.89
2022-12-31T06:24:15.704Z,12.83
2022-12-31T06:29:18.522Z,11.08
2022-12-31T06:34:21.315Z,13.33
2022-12-31T06:39:24.052Z,12.88
2022-12-31T06:44:26.787Z,10.53
2022-12-31T06:49:29.474Z,11.77
2022-12-31T06:54:32.363Z,13.70
2022-12-31T06:59:35.451Z,11.59
2022-12-31T07:05:13.050Z,11.71
2022-12-31T07:11:01.604Z,12.98
2022-12-31T07:16:32.302Z,11.14
2022-12-31T07:21:40.775Z,13.62
2022-12-31T07:27:01.772Z,12.03
2022-12-31T07:32:32.266Z,12.47
2022-12-31T07:37:48.184Z,13.49
2022-12-31T07:43:12.367Z,11.17
2022-12-31T07:48:24.980Z,11.88
2022-12-31T07:53:28.520Z,13.85
2022-12-31T07:59:00.791Z,11.56
2022-12-31T08:04:23.461Z,12.28
2022-12-31T08:09:32.115Z,13.45
2022-12-31T08:14:43.241Z,11.16
2022-12-31T08:19:46.694Z,12.31
2022-12-31T08:25:12.605Z,14.09
2022-12-31T08:30:17.721Z,11.90
2022-12-31T08:35:45.422Z,13.40
2022-12-31T08:40:58.741Z,13.79
2022-12-31T08:46:01.683Z,12.07
2022-12-31T08:51:05.396Z,14.20
2022-12-31T08:56:21.476Z,13.25
2022-12-31T09:01:28.033Z,11.67
2022-12-31T09:07:03.952Z,14.37
2022-12-31T09:12:25.394Z,13.41
2022-12-31T09:17:47.156Z,13.24
2022-12-31T09:22:51.354Z,13.92
2022-12-31T09:28:09.458Z,11.94
2022-12-31T09:33:25.671Z,12.71
2022-12-31T09:38:52.558Z,14.79
2022-12-31T09:44:13.712Z,12.73
2022-12-31T09:49:38.547Z,14.63
2022-12-31T09:55:10.043Z,13.08
2022-12-31T10:01:01.148Z,13.48
2022-12-31T10:06:28.537Z,14.27
2022-12-31T10:11:59.157Z,13.67
2022-12-31T10:17:20.575Z,15.71
2022-12-31T10:23:00.597Z,13.45
2022-12-31T10:28:41.525Z,14.67
2022-12-31T10:34:13.206Z,14.81
2022-12-31T10:39:26.972Z,13.61
2022-12-31T10:44:41.966Z,15.94
2022-12-31T10:50:29.416Z,14.01
2022-12-31T10:56:19.566Z,14.95
2022-12-31T11:01:34.478Z,15.01
2022-12-31T11:06:46.472Z,13.72
2022-12-31T11:11:58.459Z,15.96
2022-12-31T11:17:34.580Z,14.45
2022-12-31T11:23:01.611Z,14.29
2022-12-31T11:28:12.831Z,16.16
2022-12-31T11:33:25.296Z,13.77
2022-12-31T11:38:38.640Z,15.17
2022-12-31T11:44:13.282Z,15.86
2022-12-31T11:49:29.553Z,13.68
2022-12-31T11:55:00.572Z,15.51
2022-12-31T12:00:09.646Z,14.52
2022-12-31T12:05:15.262Z,14.45
2022-12-31T12:10:35.721Z,16.17
2022-12-31T12:15:43.312Z,15.78
2022-12-31T12:20:46.569Z,14.62
2022-12-31T12:25:49.382Z,16.23
2022-12-31T12:31:01.468Z,14.62
2022-12-31T12:36:09.871Z,15.45
2022-12-31T12:41:26.520Z,16.74
2022-12-31T12:46:41.573Z,14.79
2022-12-31T12:52:14.089Z,15.64
2022-12-31T12:57:46.381Z,15.50
2022-12-31T13:03:15.244Z,14.82
2022-12-31T13:08:30.099Z,16.39
2022-12-31T13:14:01.951Z,15.79
2022-12-31T13:19:37.306Z,15.26
2022-12-31T13:24:52.568Z,16.48
2022-12-31T13:30:00.094Z,16.14
2022-12-31T13:35:41.696Z,15.23
2022-12-31T13:41:09.652Z,16.77
2022-12-31T13:46:19.458Z,15.10
2022-12-31T13:51:34.972Z,16.41
2022-12-31T13:56:40.997Z,16.88
2022-12-31T14:01:56.149Z,15.57
2022-12-31T14:07:16.851Z,17.01
2022-12-31T14:12:53.244Z,17.17
2022-12-31T14:18:11.009Z,15.74
2022-12-31T14:23:22.645Z,16.97
2022-12-31T14:28:46.399Z,17.11
2022-12-31T14:34:05.412Z,16.00
2022-12-31T14:39:32.977Z,17.05
2022-12-31T14:44:57.939Z,16.35
2022-12-31T14:50:14.052Z,17.53
2022-12-31T14:55:22.963Z,16.15
2022-12-31T15:00:30.824Z,16.96
2022-12-31T15:05:51.845Z,16.90
2022-12-31T15:11:16.332Z,16.58
2022-12-31T15:16:40.227Z,17.05
2022-12-31T15:22:18.462Z,16.63
2022-12-31T15:27:33.203Z,17.69
2022-12-31T15:32:41.034Z,16.39
2022-12-31T15:37:43.766Z,17.68
2022-12-31T15:42:52.307Z,17.04
2022-12-31T15:47:58.117Z,17.16
2022-12-31T15:53:04.181Z,17.04
2022-12-31T15:58:16.872Z,17.04
2022-12-31T16:03:23.118Z,17.17
2022-12-31T16:08:33.318Z,16.62
2022-12-31T16:13:42.159Z,17.29
2022-12-31T16:18:45.311Z,16.88
2022-12-31T16:23:53.215Z,18.09
2022-12-31T16:29:00.291Z,16.87
2022-12-31T16:34:12.377Z,17.76
2022-12-31T16:39:24.637Z,17.23
2022-12-31T16:44:29.223Z,17.52
2022-12-31T16:49:35.084Z,17.43
2022-12-31T16:54:40.562Z,16.99
2022-12-31T16:59:48.277Z,17.74
2022-12-31T17:04:55.978Z,17.11
2022-12-31T17:10:23.991Z,17.74
2022-12-31T17:15:39.399Z,17.09
2022-12-31T17:20:42.184Z,17.83
2022-12-31T17:25:44.941Z,17.28
2022-12-31T17:30:47.755Z,17.88
2022-12-31T17:36:14.377Z,17.07
2022-12-31T17:41:25.035Z,18.23
2022-12-31T17:46:27.916Z,16.94
2022-12-31T17:51:30.779Z,18.05
2022-12-31T17:56:33.527Z,16.92
2022-12-31T18:01:36.435Z,18.42
2022-12-31T18:06:39.217Z,17.28
2022-12-31T18:11:42.426Z,17.73
2022-12-31T18:16:45.431Z,18.26
2022-12-31T18:21:48.071Z,17.27
2022-12-31T18:26:51.149Z,18.57
2022-12-31T18:31:53.983Z,18.99
2022-12-31T18:36:57.137Z,17.56
2022-12-31T18:41:59.765Z,18.38
2022-12-31T18:47:02.513Z,18.84
2022-12-31T18:52:05.774Z,17.30
2022-12-31T18:57:13.850Z,18.42
2022-12-31T19:02:19.964Z,18.12
2022-12-31T19:07:22.717Z,17.52
2022-12-31T19:12:25.428Z,18.24
2022-12-31T19:17:28.205Z,17.32
2022-12-31T19:22:30.962Z,18.70
2022-12-31T19:27:33.727Z,17.11
2022-12-31T19:32:36.438Z,18.17
2022-12-31T19:37:40.359Z,17.28
2022-12-31T19:42:44.472Z,17.12
2022-12-31T19:47:48.079Z,17.80
2022-12-31T19:52:53.103Z,17.14
2022-12-31T19:57:55.920Z,18.59
2022-12-31T20:02:58.933Z,16.90
2022-12-31T20:08:02.038Z,18.21
2022-12-31T20:13:05.499Z,17.02
2022-12-31T20:18:08.204Z,17.27
2022-12-31T20:23:10.887Z,18.61
2022-12-31T20:28:13.573Z,16.70
2022-12-31T20:33:19.209Z,17.56
2022-12-31T20:38:22.217Z,17.94
2022-12-31T20:43:24.904Z,16.61
2022-12-31T20:48:27.587Z,18.44
2022-12-31T20:53:30.330Z,16.91
2022-12-31T20:58:33.777Z,17.94
2022-12-31T21:04:04.843Z,18.32
2022-12-31T21:09:04.571Z,16.95
2022-12-31T21:14:07.398Z,18.42
2022-12-31T21:19:10.180Z,16.69
2022-12-31T21:24:12.905Z,18.11
2022-12-31T21:29:15.579Z,17.51
2022-12-31T21:34:18.266Z,17.13
2022-12-31T21:39:21.263Z,18.13
2022-12-31T21:44:25.021Z,16.65
2022-12-31T21:49:27.705Z,18.20
2022-12-31T21:54:49.245Z,17.13
2022-12-31T22:00:40.458Z,17.47
2022-12-31T22:05:33.400Z,17.70
2022-12-31T22:10:37.411Z,17.29
2022-12-31T22:15:48.203Z,17.90
2022-12-31T22:21:01.402Z,17.08
2022-12-31T22:26:04.914Z,17.84
2022-12-31T22:31:12.402Z,16.85
2022-12-31T22:36:18.404Z,18.42
2022-12-31T22:41:22.671Z,17.09
2022-12-31T22:46:28.123Z,18.32
2022-12-31T22:51:55.848Z,16.98
2022-12-31T22:56:55.033Z,18.29
2022-12-31T23:01:57.723Z,17.40
2022-12-31T23:07:00.625Z,18.07
2022-12-31T23:12:06.039Z,17.55
2022-12-31T23:17:34.427Z,18.35
2022-12-31T23:22:55.882Z,17.45
2022-12-31T23:27:58.660Z,18.25
2022-12-31T23:33:01.376Z,17.18
2022-12-31T23:38:04.113Z,18.45
2022-12-31T23:43:08.926Z,17.39
2022-12-31T23:48:11.657Z,18.44
2022-12-31T23:53:14.389Z,17.31
2022-12-31T23:58:17.117Z,18.39
